createdAt,value
2019-02-16T00:00:07.570Z,62.88
2019-02-16T00:01:07.644Z,62.37
2019-02-16T00:02:07.444Z,62.37
2019-02-16T00:03:07.450Z,62.94
2019-02-16T00:04:07.322Z,62.56
2019-02-16T00:05:07.325Z,62.65
2019-02-16T00:06:07.333Z,62.18
2019-02-16T00:07:07.210Z,62.85
2019-02-16T00:08:07.203Z,62.56
2019-02-16T00:09:07.084Z,62.94
2019-02-16T00:10:07.085Z,62.85
2019-02-16T00:11:07.085Z,63.04
2019-02-16T00:12:06.967Z,62.85
2019-02-16T00:13:06.963Z,62.85
2019-02-16T00:14:06.844Z,62.85
2019-02-16T00:15:06.843Z,63.13
2019-02-16T00:16:06.846Z,63.32
2019-02-16T00:17:06.722Z,63.89
2019-02-16T00:18:06.727Z,63.80
2019-02-16T00:19:06.726Z,63.51
2019-02-16T00:20:06.599Z,63.32
2019-02-16T00:21:06.599Z,63.70
2019-02-16T00:22:06.488Z,63.70
2019-02-16T00:23:06.487Z,64.18
2019-02-16T00:24:06.478Z,64.37
2019-02-16T00:25:06.358Z,64.75
2019-02-16T00:26:06.376Z,65.23
2019-02-16T00:27:06.237Z,64.75
2019-02-16T00:28:06.240Z,65.42
2019-02-16T00:29:06.237Z,65.70
2019-02-16T00:30:06.118Z,65.29
2019-02-16T00:32:06.001Z,65.95
2019-02-16T00:33:05.996Z,65.95
2019-02-16T00:34:05.998Z,65.19
2019-02-16T00:35:05.896Z,65.10
2019-02-16T00:36:05.879Z,65.38
2019-02-16T00:37:05.761Z,65.48
2019-02-16T00:38:05.757Z,65.29
2019-02-16T00:39:05.757Z,65.19
2019-02-16T00:40:05.638Z,65.10
2019-02-16T00:41:05.634Z,65.77
2019-02-16T00:42:05.637Z,65.86
2019-02-16T00:43:05.515Z,65.95
2019-02-16T00:44:05.513Z,65.86
2019-02-16T00:45:05.396Z,66.81
2019-02-16T00:46:05.401Z,67.38
2019-02-16T00:47:05.391Z,67.00
2019-02-16T00:48:05.272Z,67.10
2019-02-16T00:49:05.270Z,67.29
2019-02-16T00:50:05.155Z,67.57
2019-02-16T00:51:13.295Z,67.57
2019-02-16T00:52:05.154Z,67.29
2019-02-16T00:53:05.036Z,68.05
2019-02-16T00:54:05.037Z,68.33
2019-02-16T00:55:04.910Z,68.59
2019-02-16T00:56:04.913Z,68.87
2019-02-16T00:57:04.909Z,68.96
2019-02-16T00:58:04.791Z,68.40
2019-02-16T00:59:04.791Z,69.92
2019-02-16T01:00:04.674Z,70.58
2019-02-16T01:01:04.675Z,69.54
2019-02-16T01:02:04.675Z,69.35
2019-02-16T01:03:04.550Z,69.54
2019-02-16T01:04:04.551Z,69.73
2019-02-16T01:05:04.516Z,69.92
2019-02-16T01:06:04.433Z,70.10
2019-02-16T01:07:04.429Z,70.10
2019-02-16T01:08:04.318Z,70.87
2019-02-16T01:09:04.307Z,70.87
2019-02-16T01:10:04.313Z,71.15
2019-02-16T01:11:04.190Z,71.69
2019-02-16T01:12:04.191Z,72.35
2019-02-16T01:13:04.070Z,72.55
2019-02-16T01:14:04.068Z,72.07
2019-02-16T01:15:04.066Z,71.41
2019-02-16T01:16:03.951Z,72.26
2019-02-16T01:17:03.949Z,72.45
2019-02-16T01:18:03.832Z,72.74
2019-02-16T01:19:03.828Z,72.83
2019-02-16T01:20:03.830Z,73.21
2019-02-16T01:21:03.707Z,72.64
2019-02-16T01:22:03.709Z,73.59
2019-02-16T01:23:03.593Z,74.16
2019-02-16T01:24:03.593Z,73.97
2019-02-16T01:25:03.587Z,73.55
2019-02-16T01:26:03.469Z,73.36
2019-02-16T01:27:03.462Z,74.03
2019-02-16T01:28:03.349Z,74.12
2019-02-16T01:29:03.343Z,74.60
2019-02-16T01:30:03.346Z,74.60
2019-02-16T01:31:03.225Z,75.26
2019-02-16T01:32:03.226Z,75.45
2019-02-16T01:33:03.112Z,75.45
2019-02-16T01:34:03.104Z,75.55
2019-02-16T01:35:03.108Z,75.74
2019-02-16T01:36:02.983Z,76.59
2019-02-16T01:37:02.986Z,76.31
2019-02-16T01:38:02.862Z,76.12
2019-02-16T01:39:02.866Z,76.78
2019-02-16T01:40:02.862Z,76.31
2019-02-16T01:41:02.743Z,76.50
2019-02-16T01:42:02.745Z,76.84
2019-02-16T01:43:02.622Z,76.75
2019-02-16T01:44:02.630Z,76.93
2019-02-16T01:45:02.620Z,77.22
2019-02-16T01:46:02.499Z,76.31
2019-02-16T01:47:02.503Z,77.22
2019-02-16T01:48:02.382Z,77.98
2019-02-16T01:49:02.386Z,77.51
2019-02-16T01:50:02.390Z,76.84
2019-02-16T01:51:02.264Z,77.03
2019-02-16T01:52:02.262Z,77.79
2019-02-16T01:53:02.143Z,77.31
2019-02-16T01:54:02.141Z,77.31
2019-02-16T01:55:02.139Z,77.51
2019-02-16T01:56:02.021Z,76.75
2019-02-16T01:57:02.018Z,76.65
2019-02-16T01:58:01.898Z,77.31
2019-02-16T01:59:01.895Z,77.22
2019-02-16T02:00:01.902Z,76.18
2019-02-16T02:01:01.778Z,76.31
2019-02-16T02:02:01.778Z,75.74
2019-02-16T02:03:01.744Z,76.40
2019-02-16T02:04:01.659Z,75.84
2019-02-16T02:05:01.657Z,75.45
2019-02-16T02:06:01.537Z,74.88
2019-02-16T02:07:01.537Z,74.98
2019-02-16T02:08:01.417Z,75.36
2019-02-16T02:09:01.415Z,75.45
2019-02-16T02:10:01.428Z,75.17
2019-02-16T02:11:01.294Z,74.88
2019-02-16T02:12:01.300Z,74.60
2019-02-16T02:13:01.175Z,74.41
2019-02-16T02:14:01.177Z,74.69
2019-02-16T02:15:01.178Z,74.41
2019-02-16T02:16:01.054Z,73.84
2019-02-16T02:17:01.055Z,74.31
2019-02-16T02:18:00.934Z,73.78
2019-02-16T02:19:00.938Z,73.59
2019-02-16T02:20:00.933Z,73.78
2019-02-16T02:21:00.814Z,73.59
2019-02-16T02:22:00.815Z,73.78
2019-02-16T02:23:00.776Z,73.78
2019-02-16T02:24:00.692Z,73.49
2019-02-16T02:25:00.691Z,73.49
2019-02-16T02:26:00.578Z,72.92
2019-02-16T02:27:00.572Z,72.83
2019-02-16T02:28:00.535Z,72.07
2019-02-16T02:29:00.455Z,72.74
2019-02-16T02:30:00.542Z,72.83
2019-02-16T02:31:00.331Z,72.64
2019-02-16T02:32:00.331Z,72.35
2019-02-16T02:33:00.296Z,71.59
2019-02-16T02:34:00.215Z,72.07
2019-02-16T02:35:00.434Z,71.41
2019-02-16T02:36:00.091Z,72.11
2019-02-16T02:37:00.094Z,71.72
2019-02-16T02:38:00.091Z,71.44
2019-02-16T02:38:59.969Z,71.15
2019-02-16T02:39:59.972Z,71.25
2019-02-16T02:40:59.849Z,71.15
2019-02-16T02:41:59.853Z,71.15
2019-02-16T02:42:59.851Z,71.15
2019-02-16T02:43:59.727Z,71.72
2019-02-16T02:44:59.727Z,70.77
2019-02-16T02:45:59.607Z,71.34
2019-02-16T02:46:59.611Z,71.15
2019-02-16T02:47:59.615Z,70.97
2019-02-16T02:48:59.490Z,70.58
2019-02-16T02:49:59.485Z,71.06
2019-02-16T02:50:59.369Z,71.25
2019-02-16T02:51:59.368Z,71.25
2019-02-16T02:52:59.414Z,70.77
2019-02-16T02:53:59.250Z,70.97
2019-02-16T02:54:59.246Z,70.87
2019-02-16T02:55:59.125Z,70.97
2019-02-16T02:56:59.124Z,70.58
2019-02-16T02:57:59.126Z,70.58
2019-02-16T02:58:59.006Z,71.06
2019-02-16T02:59:59.006Z,71.06
2019-02-16T03:00:58.887Z,70.49
2019-02-16T03:01:58.883Z,70.77
2019-02-16T03:02:58.889Z,70.68
2019-02-16T03:03:58.772Z,70.30
2019-02-16T03:04:58.768Z,70.68
2019-02-16T03:05:58.646Z,69.92
2019-02-16T03:06:58.642Z,70.39
2019-02-16T03:07:58.644Z,70.39
2019-02-16T03:08:58.530Z,70.39
2019-02-16T03:09:58.536Z,70.10
2019-02-16T03:10:58.411Z,70.10
2019-02-16T03:11:58.403Z,70.10
2019-02-16T03:12:58.403Z,70.01
2019-02-16T03:13:58.285Z,70.49
2019-02-16T03:14:58.281Z,70.77
2019-02-16T03:15:58.162Z,70.49
2019-02-16T03:16:58.166Z,70.30
2019-02-16T03:17:58.161Z,70.77
2019-02-16T03:18:58.048Z,70.49
2019-02-16T03:19:58.043Z,70.10
2019-02-16T03:20:57.922Z,70.01
2019-02-16T03:22:02.980Z,70.20
2019-02-16T03:22:57.923Z,70.49
2019-02-16T03:23:57.804Z,69.54
2019-02-16T03:24:57.800Z,69.35
2019-02-16T03:25:57.767Z,69.92
2019-02-16T03:26:57.685Z,69.92
2019-02-16T03:27:57.680Z,69.44
2019-02-16T03:28:57.562Z,69.82
2019-02-16T03:29:57.561Z,70.10
2019-02-16T03:30:57.451Z,70.10
2019-02-16T03:31:57.439Z,70.39
2019-02-16T03:32:57.487Z,70.01
2019-02-16T03:33:57.322Z,70.01
2019-02-16T03:34:57.321Z,69.35
2019-02-16T03:35:57.280Z,69.54
2019-02-16T03:36:57.198Z,69.92
2019-02-16T03:37:57.204Z,70.30
2019-02-16T03:38:57.081Z,70.01
2019-02-16T03:39:57.077Z,69.92
2019-02-16T03:40:57.073Z,69.54
2019-02-16T03:41:56.961Z,69.44
2019-02-16T03:42:56.958Z,70.10
2019-02-16T03:43:56.833Z,70.39
2019-02-16T03:44:56.857Z,70.01
2019-02-16T03:45:56.836Z,69.92
2019-02-16T03:46:56.713Z,70.30
2019-02-16T03:47:56.719Z,70.49
2019-02-16T03:48:56.594Z,70.49
2019-02-16T03:49:56.592Z,70.01
2019-02-16T03:50:56.593Z,70.10
2019-02-16T03:51:56.474Z,70.10
2019-02-16T03:52:56.473Z,70.30
2019-02-16T03:53:56.357Z,70.68
2019-02-16T03:54:56.360Z,70.01
2019-02-16T03:55:56.354Z,70.68
2019-02-16T03:56:56.237Z,70.49
2019-02-16T03:57:56.236Z,70.58
2019-02-16T03:58:56.116Z,70.77
2019-02-16T03:59:56.116Z,70.97
2019-02-16T04:00:56.112Z,71.53
2019-02-16T04:01:55.993Z,70.97
2019-02-16T04:02:55.995Z,70.20
2019-02-16T04:03:55.886Z,70.87
2019-02-16T04:04:55.871Z,70.58
2019-02-16T04:05:55.876Z,71.15
2019-02-16T04:06:55.750Z,70.87
2019-02-16T04:07:55.752Z,71.06
2019-02-16T04:08:55.631Z,70.74
2019-02-16T04:09:55.635Z,71.25
2019-02-16T04:10:55.630Z,71.25
2019-02-16T04:11:55.509Z,71.02
2019-02-16T04:12:55.510Z,71.31
2019-02-16T04:13:55.389Z,72.07
2019-02-16T04:14:55.390Z,72.26
2019-02-16T04:15:55.409Z,72.83
2019-02-16T04:16:55.269Z,73.30
2019-02-16T04:17:55.273Z,73.69
2019-02-16T04:18:55.149Z,72.83
2019-02-16T04:19:55.154Z,73.40
2019-02-16T04:20:55.150Z,73.69
2019-02-16T04:21:55.025Z,74.07
2019-02-16T04:22:55.034Z,74.16
2019-02-16T04:23:54.909Z,74.26
2019-02-16T04:24:54.912Z,73.97
2019-02-16T04:25:54.910Z,74.60
2019-02-16T04:26:54.786Z,74.79
2019-02-16T04:27:54.788Z,74.98
2019-02-16T04:28:54.800Z,75.17
2019-02-16T04:29:54.668Z,74.88
2019-02-16T04:30:54.666Z,75.07
2019-02-16T04:31:54.544Z,75.64
2019-02-16T04:32:54.545Z,75.93
2019-02-16T04:33:54.512Z,75.84
2019-02-16T04:34:54.424Z,76.40
2019-02-16T04:35:54.425Z,76.59
2019-02-16T04:36:54.308Z,76.65
2019-02-16T04:37:54.306Z,76.84
2019-02-16T04:38:54.272Z,76.75
2019-02-16T04:39:54.185Z,77.12
2019-02-16T04:40:54.188Z,76.65
2019-02-16T04:41:54.067Z,77.31
2019-02-16T04:42:54.065Z,77.60
2019-02-16T04:43:54.062Z,77.89
2019-02-16T04:44:53.946Z,78.17
2019-02-16T04:45:53.945Z,79.03
2019-02-16T04:46:53.822Z,79.41
2019-02-16T04:47:53.821Z,79.22
2019-02-16T04:48:53.784Z,79.69
2019-02-16T04:49:53.700Z,79.74
2019-02-16T04:50:53.707Z,79.65
2019-02-16T04:51:53.586Z,80.03
2019-02-16T04:52:53.580Z,80.13
2019-02-16T04:53:53.556Z,80.32
2019-02-16T04:54:53.459Z,80.60
2019-02-16T04:55:53.460Z,80.60
2019-02-16T04:56:53.342Z,80.79
2019-02-16T04:57:53.342Z,80.98
2019-02-16T04:58:53.362Z,81.36
2019-02-16T04:59:53.220Z,81.45
2019-02-16T05:00:53.217Z,81.84
2019-02-16T05:01:53.101Z,81.74
2019-02-16T05:02:53.097Z,81.84
2019-02-16T05:03:53.065Z,82.36
2019-02-16T05:04:52.981Z,82.74
2019-02-16T05:05:52.977Z,83.31
2019-02-16T05:06:52.860Z,82.74
2019-02-16T05:07:52.859Z,83.59
2019-02-16T05:08:52.741Z,83.40
2019-02-16T05:09:52.739Z,83.31
2019-02-16T05:10:52.736Z,83.50
2019-02-16T05:11:52.620Z,84.17
2019-02-16T05:12:52.621Z,83.97
2019-02-16T05:13:52.497Z,84.36
2019-02-16T05:14:52.495Z,84.36
2019-02-16T05:15:52.500Z,84.83
2019-02-16T05:16:52.374Z,84.64
2019-02-16T05:17:52.375Z,84.74
2019-02-16T05:18:52.254Z,84.98
2019-02-16T05:19:52.256Z,84.98
2019-02-16T05:20:52.256Z,85.64
2019-02-16T05:21:52.137Z,85.55
2019-02-16T05:22:52.136Z,85.26
2019-02-16T05:23:52.019Z,85.74
2019-02-16T05:24:52.015Z,85.55
2019-02-16T05:25:52.035Z,85.74
2019-02-16T05:26:51.896Z,85.74
2019-02-16T05:27:51.896Z,86.30
2019-02-16T05:28:51.778Z,86.78
2019-02-16T05:29:51.776Z,86.59
2019-02-16T05:30:51.778Z,86.68
2019-02-16T05:31:51.652Z,86.68
2019-02-16T05:32:51.649Z,86.59
2019-02-16T05:33:51.532Z,86.49
2019-02-16T05:34:51.539Z,86.97
2019-02-16T05:35:51.540Z,86.78
2019-02-16T05:36:51.415Z,86.68
2019-02-16T05:37:51.412Z,86.49
2019-02-16T05:38:51.294Z,87.25
2019-02-16T05:39:51.294Z,87.73
2019-02-16T05:40:51.174Z,87.25
2019-02-16T05:41:51.177Z,87.77
2019-02-16T05:42:51.178Z,87.59
2019-02-16T05:43:51.053Z,87.97
2019-02-16T05:44:51.049Z,87.97
2019-02-16T05:45:50.930Z,87.68
2019-02-16T05:46:50.930Z,88.35
2019-02-16T05:47:50.936Z,88.16
2019-02-16T05:48:50.813Z,88.54
2019-02-16T05:49:50.808Z,88.73
2019-02-16T05:50:50.698Z,88.73
2019-02-16T05:51:50.688Z,89.01
2019-02-16T05:52:54.552Z,89.11
2019-02-16T05:53:50.652Z,89.48
2019-02-16T05:54:50.651Z,89.39
2019-02-16T05:55:50.447Z,89.48
2019-02-16T05:56:50.448Z,89.67
2019-02-16T05:57:50.448Z,90.24
2019-02-16T05:58:50.326Z,90.15
2019-02-16T05:59:50.327Z,90.43
2019-02-16T06:00:50.212Z,90.72
2019-02-16T06:01:54.018Z,90.72
2019-02-16T06:02:50.086Z,90.72
2019-02-16T06:03:50.088Z,91.00
2019-02-16T06:04:50.095Z,90.81
2019-02-16T06:05:49.965Z,91.38
2019-02-16T06:06:49.967Z,91.66
2019-02-16T06:07:49.853Z,91.28
2019-02-16T06:08:49.850Z,91.95
2019-02-16T06:09:49.846Z,92.61
2019-02-16T06:10:49.732Z,92.23
2019-02-16T06:11:49.726Z,92.33
2019-02-16T06:12:49.609Z,92.71
2019-02-16T06:13:49.606Z,92.76
2019-02-16T06:14:49.614Z,92.85
2019-02-16T06:15:49.488Z,92.47
2019-02-16T06:16:49.485Z,93.32
2019-02-16T06:17:49.365Z,93.13
2019-02-16T06:18:49.364Z,93.42
2019-02-16T06:19:49.357Z,93.89
2019-02-16T06:20:49.246Z,93.61
2019-02-16T06:21:49.261Z,93.51
2019-02-16T06:22:49.122Z,93.42
2019-02-16T06:23:49.130Z,94.18
2019-02-16T06:24:49.003Z,94.08
2019-02-16T06:25:49.006Z,94.18
2019-02-16T06:26:49.014Z,94.18
2019-02-16T06:27:48.883Z,94.56
2019-02-16T06:28:48.887Z,94.65
2019-02-16T06:29:48.764Z,94.74
2019-02-16T06:30:48.761Z,95.03
2019-02-16T06:31:48.760Z,95.22
2019-02-16T06:32:48.642Z,95.50
2019-02-16T06:33:48.642Z,95.69
2019-02-16T06:34:48.520Z,96.07
2019-02-16T06:35:48.518Z,96.07
2019-02-16T06:36:48.399Z,95.98
2019-02-16T06:37:48.404Z,96.07
2019-02-16T06:38:48.398Z,96.17
2019-02-16T06:39:48.278Z,96.26
2019-02-16T06:40:48.278Z,96.73
2019-02-16T06:41:48.157Z,96.26
2019-02-16T06:42:48.158Z,96.73
2019-02-16T06:43:48.160Z,96.17
2019-02-16T06:44:48.053Z,96.92
2019-02-16T06:45:48.042Z,97.02
2019-02-16T06:46:47.917Z,96.73
2019-02-16T06:47:47.921Z,96.92
2019-02-16T06:48:47.879Z,96.83
2019-02-16T06:49:47.795Z,97.30
2019-02-16T06:50:47.795Z,97.11
2019-02-16T06:51:47.676Z,97.21
2019-02-16T06:52:47.680Z,98.06
2019-02-16T06:53:47.558Z,98.25
2019-02-16T06:54:47.557Z,98.72
2019-02-16T06:55:47.575Z,98.72
2019-02-16T06:56:47.440Z,98.44
2019-02-16T06:57:47.435Z,98.25
2019-02-16T06:58:47.318Z,98.44
2019-02-16T06:59:47.317Z,98.35
2019-02-16T07:00:47.319Z,98.63
2019-02-16T07:01:47.196Z,98.44
2019-02-16T07:02:47.208Z,98.06
2019-02-16T07:03:47.074Z,98.91
2019-02-16T07:04:47.078Z,98.72
2019-02-16T07:05:47.035Z,98.35
2019-02-16T07:06:47.022Z,98.35
2019-02-16T07:07:46.951Z,98.63
2019-02-16T07:08:46.832Z,98.63
2019-02-16T07:09:46.831Z,98.72
2019-02-16T07:10:46.715Z,98.63
2019-02-16T07:11:46.712Z,98.44
2019-02-16T07:12:46.710Z,98.63
2019-02-16T07:13:46.594Z,98.44
2019-02-16T07:14:46.591Z,98.63
2019-02-16T07:15:46.473Z,98.54
2019-02-16T07:16:46.473Z,98.91
2019-02-16T07:17:46.465Z,99.39
2019-02-16T07:18:46.356Z,99.58
2019-02-16T07:19:46.348Z,99.29
2019-02-16T07:20:46.228Z,99.58
2019-02-16T07:21:46.228Z,99.48
2019-02-16T07:22:46.110Z,99.58
2019-02-16T07:23:46.109Z,99.29
2019-02-16T07:24:46.114Z,99.39
2019-02-16T07:25:45.988Z,99.48
2019-02-16T07:26:45.994Z,99.58
2019-02-16T07:27:45.870Z,99.86
2019-02-16T07:28:45.867Z,99.58
2019-02-16T07:29:45.867Z,99.39
2019-02-16T07:30:45.747Z,99.39
2019-02-16T07:31:45.755Z,99.58
2019-02-16T07:32:45.630Z,99.39
2019-02-16T07:33:45.629Z,99.48
2019-02-16T07:34:45.593Z,99.58
2019-02-16T07:35:45.511Z,99.58
2019-02-16T07:36:45.506Z,99.99
2019-02-16T07:37:45.389Z,99.99
2019-02-16T07:38:45.385Z,99.99
2019-02-16T07:39:45.295Z,99.99
2019-02-16T07:40:45.265Z,99.99
2019-02-16T07:41:45.268Z,99.99
2019-02-16T07:42:45.147Z,99.99
2019-02-16T07:43:45.144Z,99.48
2019-02-16T07:44:45.028Z,99.67
2019-02-16T07:45:45.026Z,99.99
2019-02-16T07:46:45.025Z,99.99
2019-02-16T07:47:44.906Z,99.99
2019-02-16T07:48:44.902Z,99.99
2019-02-16T07:49:44.784Z,99.72
2019-02-16T07:50:44.786Z,99.72
2019-02-16T07:51:44.667Z,99.63
2019-02-16T07:52:44.665Z,99.34
2019-02-16T07:53:44.665Z,98.96
2019-02-16T07:54:44.544Z,98.68
2019-02-16T07:55:44.546Z,99.25
2019-02-16T07:56:44.429Z,98.77
2019-02-16T07:57:44.421Z,98.30
2019-02-16T07:58:44.425Z,98.44
2019-02-16T07:59:44.302Z,98.16
2019-02-16T08:00:44.303Z,97.50
2019-02-16T08:01:44.178Z,96.92
2019-02-16T08:02:44.180Z,96.36
2019-02-16T08:03:44.186Z,94.84
2019-02-16T08:04:44.070Z,93.61
2019-02-16T08:05:44.062Z,93.18
2019-02-16T08:06:43.940Z,92.99
2019-02-16T08:07:43.941Z,92.71
2019-02-16T08:08:43.902Z,92.04
2019-02-16T08:09:43.822Z,91.85
2019-02-16T08:10:43.818Z,89.86
2019-02-16T08:11:43.698Z,89.24
2019-02-16T08:12:43.699Z,88.57
2019-02-16T08:13:43.582Z,88.67
2019-02-16T08:14:43.580Z,87.72
2019-02-16T08:15:43.586Z,86.58
2019-02-16T08:16:43.459Z,85.72
2019-02-16T08:17:43.466Z,84.78
2019-02-16T08:18:43.337Z,84.72
2019-02-16T08:19:43.337Z,83.78
2019-02-16T08:20:43.336Z,83.39
2019-02-16T08:21:43.216Z,83.01
2019-02-16T08:22:43.216Z,82.35
2019-02-16T08:23:43.101Z,81.68
2019-02-16T08:24:43.095Z,81.49
2019-02-16T08:25:43.096Z,80.93
2019-02-16T08:26:42.977Z,80.45
2019-02-16T08:27:42.977Z,80.21
2019-02-16T08:28:42.857Z,80.30
2019-02-16T08:29:42.854Z,79.16
2019-02-16T08:30:42.854Z,79.35
2019-02-16T08:31:42.755Z,79.06
2019-02-16T08:32:42.734Z,78.30
2019-02-16T08:33:42.614Z,76.88
2019-02-16T08:34:42.616Z,77.17
2019-02-16T08:35:42.619Z,77.01
2019-02-16T08:36:42.493Z,77.58
2019-02-16T08:37:42.493Z,77.58
2019-02-16T08:38:42.379Z,76.82
2019-02-16T08:39:42.375Z,76.63
2019-02-16T08:40:42.370Z,76.06
2019-02-16T08:41:42.253Z,75.68
2019-02-16T08:42:42.253Z,75.02
2019-02-16T08:43:42.138Z,74.73
2019-02-16T08:44:42.133Z,74.54
2019-02-16T08:45:42.137Z,73.82
2019-02-16T08:46:42.011Z,73.53
2019-02-16T08:47:42.015Z,73.63
2019-02-16T08:48:41.976Z,73.34
2019-02-16T08:49:41.893Z,73.06
2019-02-16T08:50:41.891Z,72.67
2019-02-16T08:51:41.772Z,72.96
2019-02-16T08:52:41.779Z,72.77
2019-02-16T08:53:49.689Z,72.49
2019-02-16T08:54:41.648Z,72.24
2019-02-16T08:55:41.652Z,73.10
2019-02-16T08:56:41.529Z,72.62
2019-02-16T08:57:41.533Z,71.28
2019-02-16T08:58:41.532Z,71.28
2019-02-16T08:59:41.408Z,71.19
2019-02-16T09:00:41.409Z,70.62
2019-02-16T09:01:41.286Z,70.72
2019-02-16T09:02:41.288Z,70.72
2019-02-16T09:03:41.285Z,69.85
2019-02-16T09:04:41.166Z,70.24
2019-02-16T09:05:41.171Z,70.24
2019-02-16T09:06:41.048Z,70.08
2019-02-16T09:07:41.048Z,69.60
2019-02-16T09:08:41.059Z,69.32
2019-02-16T09:09:40.926Z,68.37
2019-02-16T09:10:40.923Z,69.32
2019-02-16T09:11:40.809Z,68.65
2019-02-16T09:12:40.808Z,68.56
2019-02-16T09:13:40.802Z,67.80
2019-02-16T09:14:40.685Z,67.80
2019-02-16T09:15:40.684Z,67.07
2019-02-16T09:16:40.684Z,67.26
2019-02-16T09:17:40.574Z,66.40
2019-02-16T09:18:40.565Z,66.40
2019-02-16T09:19:40.445Z,65.73
2019-02-16T09:20:40.444Z,65.92
2019-02-16T09:21:40.440Z,65.64
2019-02-16T09:22:40.321Z,66.59
2019-02-16T09:23:40.322Z,65.86
2019-02-16T09:24:40.203Z,65.10
2019-02-16T09:25:40.202Z,65.96
2019-02-16T09:26:40.203Z,65.00
2019-02-16T09:27:40.085Z,64.72
2019-02-16T09:28:40.082Z,64.34
2019-02-16T09:29:40.044Z,64.05
2019-02-16T09:30:39.963Z,63.67
2019-02-16T09:31:39.965Z,63.20
2019-02-16T09:32:39.845Z,63.39
2019-02-16T09:33:39.843Z,62.81
2019-02-16T09:34:39.839Z,63.20
2019-02-16T09:35:39.717Z,63.70
2019-02-16T09:36:39.721Z,63.23
2019-02-16T09:37:39.604Z,62.75
2019-02-16T09:38:39.601Z,62.65
2019-02-16T09:39:39.597Z,61.22
2019-02-16T09:40:39.482Z,61.41
2019-02-16T09:41:39.485Z,61.41
2019-02-16T09:42:39.440Z,61.41
2019-02-16T09:43:39.360Z,61.60
2019-02-16T09:44:39.356Z,61.51
2019-02-16T09:45:39.238Z,61.51
2019-02-16T09:46:39.241Z,62.27
2019-02-16T09:47:39.319Z,62.02
2019-02-16T09:48:39.115Z,61.99
2019-02-16T09:49:39.116Z,62.30
2019-02-16T09:50:38.999Z,61.35
2019-02-16T09:51:38.997Z,60.87
2019-02-16T09:52:38.998Z,60.39
2019-02-16T09:53:38.874Z,60.68
2019-02-16T09:54:38.880Z,60.58
2019-02-16T09:55:38.880Z,60.39
2019-02-16T09:56:38.755Z,60.78
2019-02-16T09:57:38.755Z,60.49
2019-02-16T09:58:38.636Z,59.92
2019-02-16T09:59:38.635Z,59.82
2019-02-16T10:00:38.637Z,59.34
2019-02-16T10:01:38.514Z,58.58
2019-02-16T10:02:38.519Z,58.14
2019-02-16T10:03:38.475Z,57.65
2019-02-16T10:04:38.398Z,57.56
2019-02-16T10:05:38.393Z,57.18
2019-02-16T10:06:38.272Z,57.37
2019-02-16T10:07:38.271Z,57.18
2019-02-16T10:08:38.277Z,57.85
2019-02-16T10:09:38.150Z,57.65
2019-02-16T10:10:38.151Z,57.56
2019-02-16T10:11:38.032Z,56.99
2019-02-16T10:12:38.035Z,56.04
2019-02-16T10:13:38.033Z,56.41
2019-02-16T10:14:37.917Z,56.13
2019-02-16T10:15:37.912Z,56.99
2019-02-16T10:16:37.909Z,56.16
2019-02-16T10:17:37.793Z,56.99
2019-02-16T10:18:37.789Z,56.35
2019-02-16T10:19:37.671Z,56.06
2019-02-16T10:20:37.670Z,55.68
2019-02-16T10:21:37.669Z,55.77
2019-02-16T10:22:37.551Z,56.06
2019-02-16T10:23:37.551Z,55.96
2019-02-16T10:24:37.555Z,55.40
2019-02-16T10:25:37.428Z,54.82
2019-02-16T10:26:37.432Z,55.40
2019-02-16T10:27:37.305Z,55.58
2019-02-16T10:28:37.310Z,54.91
2019-02-16T10:29:37.307Z,55.30
2019-02-16T10:30:37.187Z,55.77
2019-02-16T10:31:37.190Z,55.87
2019-02-16T10:32:37.186Z,55.68
2019-02-16T10:33:37.067Z,55.96
2019-02-16T10:34:37.066Z,56.06
2019-02-16T10:35:36.952Z,55.87
2019-02-16T10:36:36.952Z,55.87
2019-02-16T10:37:36.948Z,55.49
2019-02-16T10:38:36.830Z,55.58
2019-02-16T10:39:36.824Z,55.80
2019-02-16T10:40:36.826Z,55.80
2019-02-16T10:41:36.704Z,55.80
2019-02-16T10:42:36.713Z,55.68
2019-02-16T10:43:36.587Z,55.32
2019-02-16T10:44:36.584Z,55.80
2019-02-16T10:45:36.591Z,55.80
2019-02-16T10:46:36.475Z,56.57
2019-02-16T10:47:36.462Z,56.38
2019-02-16T10:48:36.459Z,56.28
2019-02-16T10:49:36.344Z,56.47
2019-02-16T10:50:36.346Z,56.76
2019-02-16T10:51:36.225Z,56.57
2019-02-16T10:52:36.220Z,56.09
2019-02-16T10:53:36.221Z,55.99
2019-02-16T10:54:36.151Z,56.38
2019-02-16T10:55:36.099Z,56.57
2019-02-16T10:56:36.101Z,56.18
2019-02-16T10:57:35.981Z,56.18
2019-02-16T10:58:35.981Z,56.18
2019-02-16T10:59:35.860Z,56.47
2019-02-16T11:00:35.861Z,56.28
2019-02-16T11:01:35.860Z,56.38
2019-02-16T11:02:35.740Z,56.18
2019-02-16T11:03:35.741Z,56.28
2019-02-16T11:04:38.259Z,56.38
2019-02-16T11:05:35.621Z,56.38
2019-02-16T11:06:35.623Z,56.28
2019-02-16T11:07:35.498Z,56.09
2019-02-16T11:08:35.498Z,56.47
2019-02-16T11:09:35.500Z,57.04
2019-02-16T11:10:35.380Z,57.14
2019-02-16T11:11:35.377Z,57.04
2019-02-16T11:12:35.264Z,56.28
2019-02-16T11:13:35.260Z,56.95
2019-02-16T11:14:35.259Z,58.19
2019-02-16T11:15:35.142Z,57.62
2019-02-16T11:16:35.137Z,57.24
2019-02-16T11:17:35.134Z,56.98
2019-02-16T11:18:35.017Z,56.60
2019-02-16T11:19:35.019Z,56.69
2019-02-16T11:20:34.898Z,57.17
2019-02-16T11:21:34.895Z,57.07
2019-02-16T11:22:34.894Z,57.26
2019-02-16T11:23:34.779Z,57.07
2019-02-16T11:24:36.211Z,57.17
2019-02-16T11:25:34.783Z,57.17
2019-02-16T11:26:34.659Z,57.36
2019-02-16T11:27:34.655Z,56.79
2019-02-16T11:28:34.543Z,56.40
2019-02-16T11:29:34.536Z,57.07
2019-02-16T11:30:34.533Z,57.46
2019-02-16T11:31:34.418Z,56.31
2019-02-16T11:32:34.413Z,55.74
2019-02-16T11:33:34.411Z,56.02
2019-02-16T11:34:34.294Z,55.54
2019-02-16T11:35:34.293Z,55.93
2019-02-16T11:36:34.176Z,56.21
2019-02-16T11:37:34.175Z,57.36
2019-02-16T11:38:34.267Z,56.21
2019-02-16T11:39:34.062Z,55.64
2019-02-16T11:40:34.050Z,55.35
2019-02-16T11:41:34.050Z,56.21
2019-02-16T11:42:33.931Z,55.93
2019-02-16T11:43:33.933Z,55.74
2019-02-16T11:44:33.892Z,56.21
2019-02-16T11:45:33.812Z,55.93
2019-02-16T11:46:33.811Z,55.57
2019-02-16T11:47:33.697Z,56.53
2019-02-16T11:48:33.703Z,56.53
2019-02-16T11:49:33.690Z,55.00
2019-02-16T11:50:33.566Z,55.00
2019-02-16T11:51:33.575Z,54.33
2019-02-16T11:52:33.570Z,54.52
2019-02-16T11:53:33.461Z,54.43
2019-02-16T11:54:33.449Z,54.14
2019-02-16T11:55:33.327Z,54.71
2019-02-16T11:56:33.334Z,54.71
2019-02-16T11:57:33.326Z,54.33
2019-02-16T11:58:33.206Z,55.57
2019-02-16T11:59:33.210Z,54.33
2019-02-16T12:00:33.209Z,53.40
2019-02-16T12:01:33.085Z,52.99
2019-02-16T12:02:39.405Z,53.28
2019-02-16T12:03:32.965Z,53.37
2019-02-16T12:04:32.970Z,52.92
2019-02-16T12:05:32.965Z,53.49
2019-02-16T12:06:32.843Z,53.20
2019-02-16T12:07:32.846Z,52.44
2019-02-16T12:08:32.851Z,52.44
2019-02-16T12:09:32.726Z,52.44
2019-02-16T12:10:32.725Z,52.34
2019-02-16T12:11:32.603Z,51.97
2019-02-16T12:12:32.604Z,52.83
2019-02-16T12:13:32.603Z,52.92
2019-02-16T12:14:32.485Z,52.63
2019-02-16T12:15:32.488Z,52.37
2019-02-16T12:16:32.487Z,53.23
2019-02-16T12:17:32.362Z,53.14
2019-02-16T12:18:32.363Z,51.32
2019-02-16T12:19:32.364Z,50.46
2019-02-16T12:20:34.003Z,50.38
2019-02-16T12:21:32.243Z,49.74
2019-02-16T12:22:32.122Z,49.74
2019-02-16T12:23:32.122Z,49.07
2019-02-16T12:24:32.125Z,48.40
2019-02-16T12:25:32.000Z,48.43
2019-02-16T12:26:32.002Z,48.52
2019-02-16T12:27:32.000Z,47.75
2019-02-16T12:28:31.879Z,47.66
2019-02-16T12:29:31.883Z,47.66
2019-02-16T12:30:31.844Z,47.75
2019-02-16T12:31:31.765Z,47.46
2019-02-16T12:32:31.760Z,46.98
2019-02-16T12:33:31.644Z,47.56
2019-02-16T12:34:31.645Z,47.75
2019-02-16T12:35:31.640Z,47.10
2019-02-16T12:36:33.100Z,47.20
2019-02-16T12:37:31.521Z,46.81
2019-02-16T12:38:31.522Z,46.24
2019-02-16T12:39:31.395Z,45.76
2019-02-16T12:40:31.396Z,45.76
2019-02-16T12:41:31.276Z,45.67
2019-02-16T12:42:31.279Z,45.59
2019-02-16T12:43:31.278Z,44.82
2019-02-16T12:44:31.156Z,44.92
2019-02-16T12:45:31.159Z,44.84
2019-02-16T12:46:31.156Z,44.94
2019-02-16T12:47:31.038Z,44.96
2019-02-16T12:48:31.034Z,43.81
2019-02-16T12:49:31.048Z,43.33
2019-02-16T12:50:30.916Z,43.04
2019-02-16T12:51:30.913Z,42.94
2019-02-16T12:52:30.915Z,43.23